Time;durP1;ratioP1;P1;durP2;ratioP2;P2;SDS_P1;SDS_P2;PMS_P1;PMS_P2;Temp;Humidity;BMP_temperature;BMP_pressure;BME280_temperature;BME280_humidity;BME280_pressure;Samples;Min_cycle;Max_cycle;Signal;HPM_P1;HPM_P2
2021/07/05 00:01:07;;;;;;;18.48;6.63;;;589.40;1766.40;;;;;;4977441;28;20034;-80
2021/07/05 00:03:32;;;;;;;20.50;7.07;;;589.50;1740.80;;;;;;4995135;28;20048;-81
2021/07/05 00:05:58;;;;;;;14.43;7.25;;;589.20;1766.40;;;;;;4977637;28;20050;-87
2021/07/05 00:08:24;;;;;;;11.93;5.95;;;588.90;1792.00;;;;;;4977846;28;20051;-80
2021/07/05 00:10:49;;;;;;;21.25;7.47;;;588.90;1792.00;;;;;;4977564;28;20464;-78
2021/07/05 00:13:15;;;;;;;12.32;6.13;;;589.10;1766.40;;;;;;4994619;28;20027;-80
2021/07/05 00:15:41;;;;;;;13.07;6.68;;;589.20;1766.40;;;;;;4995296;28;20039;-79
2021/07/05 00:18:08;;;;;;;15.43;7.53;;;564.10;1817.60;;;;;;4977194;28;20065;-78
2021/07/05 00:20:40;;;;;;;12.13;6.72;;;564.10;1817.60;;;;;;4977604;28;20551;-79
2021/07/05 00:23:07;;;;;;;11.27;6.03;;;588.90;1792.00;;;;;;4977055;28;20133;-81
2021/07/05 00:25:34;;;;;;;13.43;5.97;;;588.90;1766.40;;;;;;4994780;28;20038;-78
2021/07/05 00:27:59;;;;;;;10.48;5.95;;;588.90;1766.40;;;;;;4977019;28;20038;-80
2021/07/05 00:30:26;;;;;;;14.32;6.85;;;589.10;1766.40;;;;;;4976518;28;20380;-80
2021/07/05 00:32:52;;;;;;;11.43;6.20;;;588.80;1766.40;;;;;;4976600;28;20038;-79
2021/07/05 00:35:19;;;;;;;12.95;8.07;;;588.90;1792.00;;;;;;4977189;28;20096;-78
2021/07/05 00:37:46;;;;;;;11.63;6.65;;;588.80;1792.00;;;;;;4994549;28;20031;-79
2021/07/05 00:40:12;;;;;;;14.45;6.10;;;564.10;1766.40;;;;;;4994584;28;20038;-78
2021/07/05 00:42:38;;;;;;;17.83;6.78;;;588.80;1792.00;;;;;;4994506;28;20038;-79
2021/07/05 00:45:06;;;;;;;9.68;6.60;;;588.90;1792.00;;;;;;4994192;28;20623;-80
2021/07/05 00:47:33;;;;;;;12.93;5.78;;;589.00;1792.00;;;;;;4976765;28;20039;-80
2021/07/05 00:49:58;;;;;;;12.15;6.53;;;589.20;1766.40;;;;;;4993064;28;20077;-79
2021/07/05 00:52:24;;;;;;;10.55;6.10;;;589.10;1766.40;;;;;;4994219;28;20026;-79
2021/07/05 00:54:50;;;;;;;16.10;6.22;;;589.10;1766.40;;;;;;4976660;28;20779;-79
2021/07/05 00:57:27;;;;;;;12.95;6.53;;;589.10;1792.00;;;;;;4976364;28;20050;-80
2021/07/05 00:59:55;;;;;;;11.38;6.20;;;589.10;1792.00;;;;;;4994345;28;20042;-80
2021/07/05 01:02:23;;;;;;;15.75;6.82;;;589.00;1792.00;;;;;;4992411;28;20153;-80
2021/07/05 01:04:51;;;;;;;9.55;6.30;;;588.90;1792.00;;;;;;4976868;28;20042;-80
2021/07/05 01:07:18;;;;;;;13.35;6.40;;;588.80;1817.60;;;;;;4993749;28;20483;-81
2021/07/05 01:09:43;;;;;;;15.07;7.50;;;564.10;1817.60;;;;;;4992813;28;20049;-80
2021/07/05 01:12:11;;;;;;;12.63;7.10;;;564.10;1817.60;;;;;;4976508;28;20034;-79
2021/07/05 01:14:37;;;;;;;15.77;6.90;;;588.90;1817.60;;;;;;4993684;28;20030;-79
2021/07/05 01:17:10;;;;;;;10.85;6.80;;;589.00;1792.00;;;;;;4993783;28;20042;-80
2021/07/05 01:19:37;;;;;;;10.60;7.18;;;588.90;1792.00;;;;;;4992551;28;20030;-81
2021/07/05 01:22:03;;;;;;;10.18;6.43;;;588.90;1792.00;;;;;;4978980;28;20121;-81
2021/07/05 01:24:29;;;;;;;14.05;6.63;;;588.90;1792.00;;;;;;4967786;28;20130;-79
2021/07/05 01:26:56;;;;;;;10.82;6.05;;;588.90;1792.00;;;;;;4993698;28;20034;-81
2021/07/05 01:29:22;;;;;;;12.32;6.45;;;589.00;1792.00;;;;;;4992248;28;20042;-82
2021/07/05 01:31:47;;;;;;;8.73;5.75;;;588.90;1792.00;;;;;;4970058;28;20033;-80
2021/07/05 01:34:13;;;;;;;12.82;7.03;;;588.90;1792.00;;;;;;4973985;28;20034;-80
2021/07/05 01:36:39;;;;;;;15.55;6.20;;;588.90;1766.40;;;;;;4974095;28;20085;-80
2021/07/05 01:39:07;;;;;;;9.63;6.53;;;564.10;1817.60;;;;;;4976296;28;20065;-80
2021/07/05 01:41:33;;;;;;;10.10;6.15;;;564.10;1817.60;;;;;;4981010;28;20038;-82
2021/07/05 01:43:59;;;;;;;15.90;6.47;;;564.10;1817.60;;;;;;4964838;28;20042;-80
2021/07/05 01:46:25;;;;;;;7.97;6.05;;;563.90;1817.60;;;;;;4968003;28;20396;-80
2021/07/05 01:48:51;;;;;;;9.20;6.30;;;563.80;1843.20;;;;;;4980619;28;20043;-79
2021/07/05 01:51:16;;;;;;;12.82;5.97;;;563.80;1843.20;;;;;;4982725;28;20472;-79
2021/07/05 01:53:42;;;;;;;12.65;6.70;;;563.80;1843.20;;;;;;4967446;28;20121;-79
2021/07/05 01:56:08;;;;;;;15.02;7.13;;;563.70;1843.20;;;;;;4965797;28;20102;-79
2021/07/05 01:58:34;;;;;;;14.13;6.28;;;563.80;1817.60;;;;;;4957084;28;20039;-81
2021/07/05 02:01:00;;;;;;;12.98;6.32;;;563.70;1817.60;;;;;;4960287;28;20037;-79
2021/07/05 02:03:26;;;;;;;24.05;6.68;;;563.70;1843.20;;;;;;4987942;28;20049;-76
2021/07/05 02:05:51;;;;;;;8.98;5.88;;;563.70;1843.20;;;;;;4993230;28;20117;-77
2021/07/05 02:08:18;;;;;;;12.60;6.60;;;563.60;1843.20;;;;;;4992726;28;20149;-81
2021/07/05 02:10:45;;;;;;;17.77;7.43;;;563.60;1843.20;;;;;;4975617;28;20149;-78
2021/07/05 02:13:14;;;;;;;9.40;6.13;;;563.50;1868.80;;;;;;4992594;28;20037;-78
2021/07/05 02:15:41;;;;;;;12.38;7.47;;;563.50;1868.80;;;;;;4991547;28;20443;-79
2021/07/05 02:18:07;;;;;;;11.32;7.10;;;563.60;1843.20;;;;;;4991196;28;20046;-79
2021/07/05 02:20:33;;;;;;;9.60;6.95;;;563.60;1843.20;;;;;;4992906;28;20038;-80
2021/07/05 02:23:01;;;;;;;9.52;6.38;;;563.60;1843.20;;;;;;4991858;28;20045;-79
2021/07/05 02:25:28;;;;;;;11.10;6.32;;;563.50;1843.20;;;;;;4992805;28;20034;-80
2021/07/05 02:27:58;;;;;;;13.05;6.43;;;563.50;1843.20;;;;;;4991439;28;20052;-80
2021/07/05 02:30:26;;;;;;;10.68;6.45;;;563.50;1868.80;;;;;;4992500;28;20054;-88
2021/07/05 02:32:52;;;;;;;12.45;6.88;;;563.50;1868.80;;;;;;4992234;28;20026;-81
2021/07/05 02:35:20;;;;;;;12.60;7.00;;;563.40;1868.80;;;;;;4975268;28;20146;-84
2021/07/05 02:37:47;;;;;;;11.63;6.75;;;563.40;1868.80;;;;;;4975221;28;20031;-80
2021/07/05 02:40:15;;;;;;;17.63;7.25;;;563.40;1868.80;;;;;;4975132;28;20042;-80
2021/07/05 02:42:42;;;;;;;12.25;6.90;;;563.40;1868.80;;;;;;4973839;28;20045;-79
2021/07/05 02:45:10;;;;;;;9.32;6.30;;;563.50;1868.80;;;;;;4968917;28;20039;-79
2021/07/05 02:47:36;;;;;;;8.82;6.70;;;563.40;1868.80;;;;;;4971895;28;20034;-79
2021/07/05 02:50:07;;;;;;;12.65;6.93;;;563.40;1843.20;;;;;;4991293;28;20042;-79
2021/07/05 02:52:33;;;;;;;13.00;6.93;;;563.40;1868.80;;;;;;4974937;28;20369;-83
2021/07/05 02:54:59;;;;;;;15.23;7.50;;;563.30;1868.80;;;;;;4993572;28;20470;-79
2021/07/05 02:57:30;;;;;;;11.90;6.93;;;563.30;1843.20;;;;;;4996086;28;20065;-79
2021/07/05 03:00:09;;;;;;;12.45;6.55;;;563.30;1843.20;;;;;;4996274;28;20061;-78
2021/07/05 03:02:34;;;;;;;11.93;7.25;;;563.40;1843.20;;;;;;4978747;28;20037;-78
2021/07/05 03:05:01;;;;;;;12.05;6.68;;;563.60;1817.60;;;;;;4995921;28;20030;-79
2021/07/05 03:07:27;;;;;;;16.25;7.32;;;563.60;1817.60;;;;;;4996525;28;20484;-79
2021/07/05 03:09:54;;;;;;;20.50;6.75;;;563.50;1817.60;;;;;;4978626;28;20158;-79
2021/07/05 03:12:20;;;;;;;17.98;6.35;;;563.50;1843.20;;;;;;4978859;28;20404;-84
2021/07/05 03:14:46;;;;;;;26.80;7.32;;;563.50;1843.20;;;;;;4978466;28;20035;-79
2021/07/05 03:17:13;;;;;;;18.02;7.35;;;563.60;1817.60;;;;;;4996266;28;20061;-79
2021/07/05 03:19:39;;;;;;;16.45;7.95;;;563.60;1843.20;;;;;;4988116;28;20042;-77
2021/07/05 03:22:05;;;;;;;18.85;7.22;;;563.70;1817.60;;;;;;4986886;28;20039;-78
2021/07/05 03:24:31;;;;;;;10.40;7.03;;;563.60;1843.20;;;;;;4987345;28;20042;-84
2021/07/05 03:26:56;;;;;;;9.38;6.15;;;563.70;1817.60;;;;;;4978066;28;20026;-79
2021/07/05 03:29:22;;;;;;;10.13;7.10;;;563.60;1843.20;;;;;;4977228;28;20504;-78
2021/07/05 03:31:48;;;;;;;12.88;7.05;;;563.60;1843.20;;;;;;4972043;28;20026;-79
2021/07/05 03:34:14;;;;;;;18.00;7.28;;;563.70;1843.20;;;;;;4976264;28;20484;-78
2021/07/05 03:36:40;;;;;;;14.80;6.70;;;563.80;1843.20;;;;;;4976339;28;20088;-78
2021/07/05 03:39:06;;;;;;;18.83;6.72;;;564.00;1843.20;;;;;;4976130;28;20030;-77
2021/07/05 03:41:32;;;;;;;9.20;6.43;;;564.10;1817.60;;;;;;4976113;28;20086;-87
2021/07/05 03:43:58;;;;;;;12.52;6.63;;;588.80;1817.60;;;;;;4975953;28;20061;-78
2021/07/05 03:46:24;;;;;;;16.00;7.05;;;588.90;1843.20;;;;;;4976053;28;20027;-77
2021/07/05 03:48:50;;;;;;;18.17;8.02;;;588.80;1843.20;;;;;;4975983;28;20370;-77
2021/07/05 03:51:17;;;;;;;10.73;7.30;;;589.00;1817.60;;;;;;4975724;28;20033;-78
2021/07/05 03:53:43;;;;;;;15.25;6.82;;;588.80;1817.60;;;;;;4975830;28;20114;-77
2021/07/05 03:56:09;;;;;;;12.27;7.35;;;588.90;1817.60;;;;;;4975877;28;20506;-79
2021/07/05 03:58:35;;;;;;;12.43;6.72;;;588.90;1817.60;;;;;;4975632;28;20392;-77
2021/07/05 04:01:01;;;;;;;10.55;7.13;;;588.90;1817.60;;;;;;4958686;28;20031;-77
2021/07/05 04:03:27;;;;;;;11.98;6.63;;;588.90;1817.60;;;;;;4975375;28;20041;-77
2021/07/05 04:05:54;;;;;;;9.43;6.68;;;588.80;1843.20;;;;;;4958117;28;20042;-77
2021/07/05 04:08:26;;;;;;;17.40;8.18;;;588.80;1843.20;;;;;;4975635;28;20070;-77
2021/07/05 04:10:52;;;;;;;14.98;7.45;;;588.80;1843.20;;;;;;4975650;28;20101;-78
2021/07/05 04:13:17;;;;;;;15.77;7.32;;;589.00;1843.20;;;;;;4958112;28;20489;-78
2021/07/05 04:15:43;;;;;;;13.30;8.13;;;589.00;1843.20;;;;;;4975417;28;20412;-79
2021/07/05 04:18:09;;;;;;;15.15;7.38;;;589.00;1843.20;;;;;;4975727;28;20035;-84
2021/07/05 04:20:35;;;;;;;15.43;6.82;;;589.10;1868.80;;;;;;4975313;28;20038;-76
2021/07/05 04:23:01;;;;;;;19.10;8.07;;;589.10;1843.20;;;;;;4975190;28;20405;-77
2021/07/05 04:25:27;;;;;;;20.92;8.00;;;589.30;1843.20;;;;;;4974936;28;20114;-76
2021/07/05 04:27:54;;;;;;;22.05;8.63;;;589.50;1843.20;;;;;;4975359;28;20065;-77
2021/07/05 04:30:20;;;;;;;21.52;8.52;;;589.60;1868.80;;;;;;4975050;28;20393;-77
2021/07/05 04:32:46;;;;;;;14.98;7.38;;;589.60;1843.20;;;;;;4975317;28;20022;-77
2021/07/05 04:35:17;;;;;;;15.02;8.73;;;589.70;1843.20;;;;;;4974705;28;20039;-79
2021/07/05 04:37:44;;;;;;;12.82;7.57;;;614.40;1843.20;;;;;;4975194;28;20042;-77
2021/07/05 04:40:13;;;;;;;20.25;8.52;;;614.50;1868.80;;;;;;4957722;28;20114;-78
2021/07/05 04:42:40;;;;;;;20.45;8.48;;;614.50;1843.20;;;;;;4977446;28;20126;-78
2021/07/05 04:45:07;;;;;;;31.48;10.52;;;614.50;1868.80;;;;;;4968465;28;20057;-78
2021/07/05 04:47:33;;;;;;;32.05;9.35;;;614.60;1868.80;;;;;;4976730;28;20054;-80
2021/07/05 04:49:59;;;;;;;23.30;9.27;;;614.60;1868.80;;;;;;4994157;28;20031;-79
2021/07/05 04:52:25;;;;;;;14.65;7.82;;;614.70;1843.20;;;;;;4994387;28;20073;-79
2021/07/05 04:54:51;;;;;;;12.35;7.90;;;614.80;1817.60;;;;;;4992952;28;20551;-79
2021/07/05 04:57:17;;;;;;;15.75;7.70;;;614.80;1817.60;;;;;;4993901;28;20054;-79
2021/07/05 04:59:43;;;;;;;11.73;8.48;;;614.80;1792.00;;;;;;4976845;28;20128;-80
2021/07/05 05:02:09;;;;;;;13.18;7.30;;;614.80;1792.00;;;;;;4986780;28;20483;-80
2021/07/05 05:04:34;;;;;;;11.93;7.53;;;615.00;1792.00;;;;;;4983162;28;20455;-80
2021/07/05 05:07:00;;;;;;;13.88;7.30;;;615.20;1766.40;;;;;;4976486;28;20038;-80
2021/07/05 05:09:26;;;;;;;10.73;7.15;;;615.20;1740.80;;;;;;4976222;28;20041;-81
2021/07/05 05:11:52;;;;;;;19.38;8.20;;;615.20;1740.80;;;;;;4994151;28;20126;-80
2021/07/05 05:14:19;;;;;;;11.43;7.25;;;615.30;1715.20;;;;;;4976166;28;20035;-78
2021/07/05 05:16:46;;;;;;;13.10;7.45;;;640.10;1715.20;;;;;;4975723;28;20031;-79
2021/07/05 05:19:11;;;;;;;12.05;7.13;;;640.10;1715.20;;;;;;4993107;28;20042;-77
2021/07/05 05:21:37;;;;;;;9.38;6.57;;;640.20;1689.60;;;;;;4993970;28;20093;-77
2021/07/05 05:24:04;;;;;;;14.07;7.72;;;640.30;1689.60;;;;;;4993071;28;20477;-77
2021/07/05 05:26:30;;;;;;;13.02;7.00;;;640.40;1689.60;;;;;;4980149;28;20026;-77
2021/07/05 05:28:56;;;;;;;18.67;8.00;;;640.50;1715.20;;;;;;4982467;28;20061;-78
2021/07/05 05:31:23;;;;;;;10.45;7.13;;;640.50;1715.20;;;;;;4984282;28;20037;-82
2021/07/05 05:33:49;;;;;;;9.40;6.72;;;640.50;1715.20;;;;;;4964634;28;20105;-83
2021/07/05 05:36:15;;;;;;;14.13;6.78;;;640.60;1740.80;;;;;;4973596;28;20485;-79
2021/07/05 05:38:46;;;;;;;13.07;7.35;;;640.70;1689.60;;;;;;4956697;28;20588;-81
2021/07/05 05:41:11;;;;;;;10.35;6.82;;;640.60;1689.60;;;;;;4956700;28;20440;-82
2021/07/05 05:43:37;;;;;;;13.55;7.03;;;640.70;1689.60;;;;;;4956741;28;20047;-82
2021/07/05 05:46:03;;;;;;;23.10;8.35;;;640.70;1664.00;;;;;;4956688;28;20058;-83
2021/07/05 05:48:30;;;;;;;22.55;7.38;;;640.70;1689.60;;;;;;4957076;28;20488;-83
2021/07/05 05:50:57;;;;;;;14.43;7.25;;;640.70;1689.60;;;;;;4957020;28;20046;-81
2021/07/05 05:53:23;;;;;;;17.20;7.88;;;640.80;1689.60;;;;;;4956656;28;20035;-82
2021/07/05 05:55:49;;;;;;;13.57;7.93;;;640.90;1689.60;;;;;;4956706;28;20496;-79
2021/07/05 05:58:16;;;;;;;10.80;6.50;;;665.60;1715.20;;;;;;4973675;28;20050;-83
2021/07/05 06:00:42;;;;;;;13.88;7.70;;;640.90;1689.60;;;;;;4956400;28;20465;-83
2021/07/05 06:03:08;;;;;;;12.90;6.75;;;665.60;1664.00;;;;;;4956259;28;20539;-84
2021/07/05 06:05:33;;;;;;;10.32;7.65;;;665.70;1664.00;;;;;;4956685;28;20035;-81
2021/07/05 06:07:59;;;;;;;18.20;8.70;;;665.90;1689.60;;;;;;4972200;28;20109;-81
2021/07/05 06:10:25;;;;;;;13.23;7.75;;;665.90;1664.00;;;;;;4993311;28;20108;-81
2021/07/05 06:12:53;;;;;;;9.77;6.65;;;666.00;1664.00;;;;;;4992862;28;20042;-80
2021/07/05 06:15:20;;;;;;;10.93;7.18;;;666.00;1638.40;;;;;;4991841;28;20129;-82
2021/07/05 06:17:47;;;;;;;8.60;6.55;;;666.00;1664.00;;;;;;4991575;28;20122;-81
2021/07/05 06:20:14;;;;;;;8.43;6.40;;;666.20;1612.80;;;;;;4992616;28;20524;-82
2021/07/05 06:22:52;;;;;;;8.82;6.47;;;666.20;1612.80;;;;;;4984451;28;20049;-77
2021/07/05 06:25:18;;;;;;;9.85;7.93;;;666.20;1638.40;;;;;;4974438;28;20039;-78
2021/07/05 06:27:44;;;;;;;10.70;7.72;;;666.20;1664.00;;;;;;4964271;28;20042;-82
2021/07/05 06:30:10;;;;;;;9.85;6.93;;;666.20;1664.00;;;;;;4992849;28;20034;-82
2021/07/05 06:32:36;;;;;;;11.85;7.13;;;666.20;1664.00;;;;;;4982426;28;20061;-81
2021/07/05 06:35:02;;;;;;;15.13;8.20;;;666.30;1664.00;;;;;;4986100;28;20068;-82
2021/07/05 06:37:28;;;;;;;13.18;7.45;;;666.30;1664.00;;;;;;4975498;28;20395;-84
2021/07/05 06:39:54;;;;;;;9.95;6.78;;;666.30;1664.00;;;;;;4992786;28;20034;-82
2021/07/05 06:42:19;;;;;;;10.65;6.78;;;666.40;1638.40;;;;;;4960950;28;20046;-82
2021/07/05 06:44:45;;;;;;;13.32;6.53;;;666.50;1638.40;;;;;;4976815;28;20409;-81
2021/07/05 06:47:11;;;;;;;12.48;6.97;;;666.50;1638.40;;;;;;4982907;28;20563;-81
2021/07/05 06:49:36;;;;;;;10.40;6.85;;;691.20;1612.80;;;;;;4988268;28;20043;-79
2021/07/05 06:52:03;;;;;;;8.43;6.95;;;666.50;1612.80;;;;;;4981411;28;20105;-80
2021/07/05 06:54:28;;;;;;;10.35;6.15;;;691.20;1612.80;;;;;;4984272;28;20033;-85
2021/07/05 06:56:54;;;;;;;8.52;6.15;;;691.30;1587.20;;;;;;4992094;28;20046;-82
2021/07/05 06:59:20;;;;;;;12.48;6.55;;;691.40;1587.20;;;;;;4990960;28;20050;-82
2021/07/05 07:01:46;;;;;;;8.82;6.72;;;691.70;1561.60;;;;;;4992679;28;20035;-80
2021/07/05 07:04:11;;;;;;;8.02;5.68;;;691.70;1536.00;;;;;;4991529;28;20046;-79
2021/07/05 07:06:37;;;;;;;8.77;6.10;;;691.70;1433.60;;;;;;4975373;28;20119;-85
2021/07/05 07:09:04;;;;;;;10.52;5.80;;;691.70;1510.40;;;;;;4992423;28;20492;-85
2021/07/05 07:11:30;;;;;;;8.68;5.85;;;691.80;1433.60;;;;;;4993072;28;20532;-85
2021/07/05 07:13:56;;;;;;;10.93;6.80;;;692.00;1484.80;;;;;;4992485;28;20046;-85
2021/07/05 07:16:25;;;;;;;9.85;6.47;;;716.80;1484.80;;;;;;4989525;28;20029;-80
2021/07/05 07:21:23;;;;;;;14.88;6.18;;;717.00;1536.00;;;;;;4980909;28;20062;-83
2021/07/05 07:23:49;;;;;;;14.02;6.10;;;717.20;1510.40;;;;;;4974644;28;20484;-87
2021/07/05 07:26:15;;;;;;;12.50;6.05;;;717.30;1510.40;;;;;;4974470;28;20085;-78
2021/07/05 07:28:41;;;;;;;13.18;6.35;;;717.30;1433.60;;;;;;4991297;28;20046;-83
2021/07/05 07:31:07;;;;;;;10.60;6.22;;;717.40;1459.20;;;;;;4990083;28;20500;-87
2021/07/05 07:33:32;;;;;;;12.60;7.68;;;717.40;1433.60;;;;;;4956189;28;20058;-79
2021/07/05 07:36:01;;;;;;;12.20;6.05;;;717.60;1510.40;;;;;;4954905;28;20035;-86
2021/07/05 07:38:30;;;;;;;9.18;5.63;;;742.40;1510.40;;;;;;4973280;28;20508;-87
2021/07/05 07:40:56;;;;;;;12.95;7.05;;;742.40;1510.40;;;;;;4957344;28;20031;-78
2021/07/05 07:43:22;;;;;;;9.15;6.43;;;742.50;1459.20;;;;;;4976923;28;20117;-80
2021/07/05 07:45:47;;;;;;;10.30;6.35;;;742.70;1459.20;;;;;;4959116;28;20035;-83
2021/07/05 07:48:13;;;;;;;10.07;6.00;;;742.80;1433.60;;;;;;4976633;28;20039;-80
2021/07/05 07:50:39;;;;;;;8.07;6.05;;;742.80;1408.00;;;;;;4976001;28;20031;-84
2021/07/05 07:53:05;;;;;;;8.50;6.18;;;742.80;1382.40;;;;;;4958629;28;20401;-73
2021/07/05 07:55:30;;;;;;;11.05;5.55;;;742.90;1382.40;;;;;;4976014;28;20062;-82
2021/07/05 07:57:56;;;;;;;10.63;5.55;;;742.90;1408.00;;;;;;4975544;28;20450;-77
2021/07/05 08:00:22;;;;;;;12.48;5.50;;;742.90;1382.40;;;;;;4989325;28;20037;-78
2021/07/05 08:02:47;;;;;;;13.10;5.70;;;743.00;1382.40;;;;;;4975596;28;20469;-74
2021/07/05 08:05:14;;;;;;;6.93;5.20;;;743.00;1382.40;;;;;;4980994;28;20070;-82
2021/07/05 08:07:43;;;;;;;7.03;5.55;;;742.90;1331.20;;;;;;4989430;28;20028;-74
2021/07/05 08:10:11;;;;;;;8.68;5.25;;;742.60;1356.80;;;;;;4976428;28;20037;-74
2021/07/05 08:12:37;;;;;;;11.20;6.03;;;742.60;1356.80;;;;;;4976604;28;20023;-81
2021/07/05 08:15:04;;;;;;;9.27;5.60;;;742.60;1382.40;;;;;;4976415;28;20037;-80
2021/07/05 08:17:30;;;;;;;11.55;5.70;;;742.70;1382.40;;;;;;4959249;28;20027;-77
2021/07/05 08:19:56;;;;;;;9.65;4.82;;;742.70;1331.20;;;;;;4976567;28;20035;-79
2021/07/05 08:22:21;;;;;;;9.77;4.75;;;742.90;1254.40;;;;;;4976568;28;20042;-80
2021/07/05 08:24:49;;;;;;;8.52;5.03;;;742.90;1280.00;;;;;;4976022;28;20075;-78
2021/07/05 08:27:15;;;;;;;6.95;4.90;;;743.10;1228.80;;;;;;4959501;28;20409;-81
2021/07/05 08:29:40;;;;;;;10.80;5.65;;;743.00;1254.40;;;;;;4959260;28;20031;-79
2021/07/05 08:32:07;;;;;;;7.05;4.75;;;743.20;1254.40;;;;;;4976678;28;20034;-80
2021/07/05 08:34:32;;;;;;;8.73;4.20;;;743.30;1203.20;;;;;;4975053;28;20123;-82
2021/07/05 08:36:58;;;;;;;7.93;4.32;;;768.10;1152.00;;;;;;4958097;28;20118;-80
2021/07/05 08:39:24;;;;;;;8.70;4.72;;;768.20;1177.60;;;;;;4958981;28;20069;-81
2021/07/05 08:41:50;;;;;;;10.43;5.13;;;768.20;1152.00;;;;;;4958897;28;20447;-82
2021/07/05 08:44:16;;;;;;;12.25;4.22;;;768.10;1177.60;;;;;;4958662;28;20481;-80
2021/07/05 08:46:43;;;;;;;7.60;4.30;;;768.10;1177.60;;;;;;4958958;28;20031;-82
2021/07/05 08:49:11;;;;;;;11.68;4.63;;;768.20;1177.60;;;;;;4958955;28;20573;-82
2021/07/05 08:51:37;;;;;;;16.70;4.57;;;768.30;1152.00;;;;;;4957941;28;20035;-82
2021/07/05 08:54:02;;;;;;;10.85;4.78;;;768.60;1152.00;;;;;;4976364;28;20034;-79
2021/07/05 08:56:28;;;;;;;7.60;4.47;;;768.60;1126.40;;;;;;4958589;28;20149;-83
2021/07/05 08:58:54;;;;;;;8.15;4.97;;;768.60;1100.80;;;;;;4959157;28;20382;-83
2021/07/05 09:01:20;;;;;;;8.32;4.40;;;768.60;1152.00;;;;;;4976081;28;20030;-82
2021/07/05 09:03:46;;;;;;;8.93;4.72;;;768.60;1075.20;;;;;;4976169;28;20493;-79
2021/07/05 09:06:17;;;;;;;5.40;4.00;;;768.90;1126.40;;;;;;4958694;28;20035;-84
2021/07/05 09:09:05;;;;;;;8.45;4.75;;;793.70;1100.80;;;;;;4959315;28;20121;-85
2021/07/05 09:11:46;;;;;;;7.60;4.72;;;793.80;1100.80;;;;;;4975841;28;20125;-83
2021/07/05 09:14:13;;;;;;;7.32;5.03;;;793.80;1100.80;;;;;;4975895;28;20031;-81
2021/07/05 09:16:40;;;;;;;10.73;4.03;;;793.80;1049.60;;;;;;4958303;28;20027;-84
2021/07/05 09:19:22;;;;;;;11.38;4.43;;;793.80;1100.80;;;;;;4964089;28;20030;-84
2021/07/05 09:21:55;;;;;;;6.40;4.50;;;794.00;1100.80;;;;;;4982881;28;20555;-79
2021/07/05 09:24:33;;;;;;;9.77;5.13;;;794.10;1075.20;;;;;;4976086;28;20047;-77
2021/07/05 09:27:21;;;;;;;6.47;4.03;;;794.30;1075.20;;;;;;4975902;28;20057;-80
2021/07/05 09:29:48;;;;;;;8.80;4.65;;;794.50;1100.80;;;;;;4988328;28;20080;-85
2021/07/05 09:32:29;;;;;;;9.55;5.82;;;819.20;1049.60;;;;;;4967222;28;20126;-82
2021/07/05 09:34:55;;;;;;;13.88;4.82;;;819.30;1075.20;;;;;;4958042;28;20035;-79
2021/07/05 09:37:32;;;;;;;15.15;5.68;;;819.60;1049.60;;;;;;4957970;28;20050;-82
2021/07/05 09:40:02;;;;;;;5.88;4.40;;;819.60;1024.00;;;;;;4975328;28;20114;-80
2021/07/05 09:42:33;;;;;;;8.30;4.57;;;819.60;1049.60;;;;;;4966400;28;20038;-77
2021/07/05 09:45:01;;;;;;;5.88;4.60;;;819.50;998.40;;;;;;4968520;28;20555;-78
2021/07/05 09:47:27;;;;;;;6.53;5.32;;;819.50;1049.60;;;;;;4984629;28;20031;-77
2021/07/05 09:49:59;;;;;;;8.60;5.35;;;819.50;1049.60;;;;;;4983110;28;20034;-77
2021/07/05 09:52:27;;;;;;;9.95;4.47;;;819.70;1024.00;;;;;;4982974;28;20089;-78
2021/07/05 09:55:06;;;;;;;7.13;4.50;;;819.70;998.40;;;;;;4976664;28;20037;-79
2021/07/05 09:57:47;;;;;;;5.60;4.53;;;819.70;1049.60;;;;;;4982600;28;20049;-79
2021/07/05 10:00:19;;;;;;;10.48;5.35;;;819.80;1024.00;;;;;;4983745;28;20484;-78
2021/07/05 10:03:03;;;;;;;9.80;5.32;;;819.80;1049.60;;;;;;4970853;28;20064;-86
2021/07/05 10:05:34;;;;;;;8.40;4.97;;;819.80;1049.60;;;;;;4977378;28;20045;-80
2021/07/05 10:08:09;;;;;;;5.35;4.85;;;819.80;1049.60;;;;;;4976374;28;20049;-87
2021/07/05 10:10:39;;;;;;;8.63;4.70;;;820.00;1024.00;;;;;;4994539;28;20030;-79
2021/07/05 10:13:10;;;;;;;8.50;5.03;;;819.80;998.40;;;;;;4994217;28;20030;-87
2021/07/05 10:15:37;;;;;;;6.25;5.45;;;819.80;1024.00;;;;;;4994570;28;20037;-84
2021/07/05 10:18:04;;;;;;;9.07;4.95;;;819.80;1049.60;;;;;;4977121;28;20412;-82
2021/07/05 10:20:31;;;;;;;7.25;4.93;;;820.00;998.40;;;;;;4994596;28;20038;-85
2021/07/05 10:23:00;;;;;;;9.77;4.68;;;820.10;998.40;;;;;;4977521;28;20543;-86
2021/07/05 10:25:28;;;;;;;7.55;5.18;;;845.00;1024.00;;;;;;4969263;28;20038;-86
2021/07/05 10:27:54;;;;;;;9.13;5.43;;;844.80;1024.00;;;;;;4975874;28;20038;-84
2021/07/05 10:30:20;;;;;;;5.53;4.72;;;845.20;1024.00;;;;;;4973228;28;20567;-84
2021/07/05 10:32:48;;;;;;;7.63;4.70;;;845.70;972.80;;;;;;4975301;28;20027;-83
2021/07/05 10:35:17;;;;;;;9.60;4.95;;;845.40;972.80;;;;;;4966016;28;20035;-84
2021/07/05 10:38:00;;;;;;;7.10;4.95;;;845.40;972.80;;;;;;4965517;28;20077;-83
2021/07/05 10:40:34;;;;;;;5.57;4.70;;;845.10;947.20;;;;;;4973220;28;20030;-82
2021/07/05 10:42:59;;;;;;;8.68;5.10;;;844.80;998.40;;;;;;4965916;28;20041;-82
2021/07/05 10:45:41;;;;;;;6.85;4.75;;;845.10;998.40;;;;;;4966463;28;20034;-83
2021/07/05 10:48:08;;;;;;;7.68;4.72;;;845.40;972.80;;;;;;4984066;28;20034;-82
2021/07/05 10:50:44;;;;;;;11.38;5.47;;;845.40;972.80;;;;;;4962586;28;20030;-81
2021/07/05 10:53:18;;;;;;;6.55;4.43;;;845.20;972.80;;;;;;4965313;28;20046;-82
2021/07/05 10:55:50;;;;;;;9.85;5.25;;;844.90;998.40;;;;;;4981625;28;20379;-82
2021/07/05 10:58:42;;;;;;;9.70;4.60;;;819.90;998.40;;;;;;4972720;28;20073;-83
2021/07/05 11:01:08;;;;;;;8.50;5.43;;;819.70;1024.00;;;;;;4979908;28;20039;-83
2021/07/05 11:03:37;;;;;;;13.27;5.32;;;819.90;972.80;;;;;;4974224;28;20050;-82
2021/07/05 11:06:08;;;;;;;7.93;5.03;;;819.80;1024.00;;;;;;4974483;28;20030;-82
2021/07/05 11:08:52;;;;;;;6.72;4.50;;;819.80;1049.60;;;;;;4957217;28;20046;-82
2021/07/05 11:11:26;;;;;;;7.20;5.18;;;819.70;1024.00;;;;;;4964102;28;20031;-82
2021/07/05 11:14:10;;;;;;;6.85;4.57;;;819.60;998.40;;;;;;4984414;28;20059;-82
2021/07/05 11:17:02;;;;;;;8.70;5.03;;;819.50;998.40;;;;;;4968567;28;20111;-83
2021/07/05 11:19:35;;;;;;;15.57;5.15;;;819.40;998.40;;;;;;4960934;28;20404;-83
2021/07/05 11:22:05;;;;;;;11.15;5.03;;;819.80;972.80;;;;;;4987973;28;20027;-83
2021/07/05 11:24:33;;;;;;;8.27;4.85;;;820.00;972.80;;;;;;4985346;28;20396;-83
2021/07/05 11:27:24;;;;;;;5.30;4.30;;;844.80;972.80;;;;;;4977989;28;20119;-84
2021/07/05 11:29:50;;;;;;;5.80;4.18;;;845.10;947.20;;;;;;4988213;28;20030;-80
2021/07/05 11:45:39;;;;;;;12.02;4.82;;;845.20;947.20;;;;;;5128904;27;20380;-82
2021/07/05 11:48:05;;;;;;;9.33;4.90;;;845.70;921.60;;;;;;5126523;28;20028;-80
2021/07/05 11:50:31;;;;;;;11.25;5.15;;;845.10;921.60;;;;;;5128618;27;20387;-80
2021/07/05 11:53:02;;;;;;;9.27;4.82;;;844.80;998.40;;;;;;5129023;27;20502;-82
2021/07/05 11:55:33;;;;;;;7.10;4.65;;;820.00;947.20;;;;;;5125927;27;20472;-82
2021/07/05 11:58:06;;;;;;;6.82;4.45;;;819.80;972.80;;;;;;5128771;27;20027;-79
2021/07/05 12:00:33;;;;;;;8.27;4.45;;;819.50;998.40;;;;;;5127949;27;20015;-79
2021/07/05 12:03:05;;;;;;;5.75;4.68;;;819.20;998.40;;;;;;5128150;27;20035;-79
2021/07/05 12:05:32;;;;;;;7.40;5.32;;;794.40;1024.00;;;;;;5129487;27;20533;-79
2021/07/05 12:08:06;;;;;;;5.47;4.50;;;794.30;1024.00;;;;;;5126613;28;20106;-81
2021/07/05 12:10:34;;;;;;;9.17;4.87;;;794.20;1049.60;;;;;;5128546;27;20028;-80
2021/07/05 12:13:18;;;;;;;9.50;5.18;;;794.20;1049.60;;;;;;5128005;27;20034;-80
2021/07/05 12:16:03;;;;;;;8.57;4.80;;;794.20;1075.20;;;;;;5127183;27;20043;-80
2021/07/05 12:18:30;;;;;;;6.78;5.50;;;794.20;1049.60;;;;;;5127153;28;20019;-80
2021/07/05 12:21:03;;;;;;;7.55;4.35;;;794.20;1024.00;;;;;;5127685;27;20023;-80
2021/07/05 12:23:41;;;;;;;12.63;4.88;;;794.20;1024.00;;;;;;5128117;27;20263;-80
2021/07/05 12:26:21;;;;;;;9.30;4.68;;;794.20;1049.60;;;;;;5127926;27;20054;-79
2021/07/05 12:29:10;;;;;;;8.52;4.88;;;794.00;1024.00;;;;;;5127413;28;20020;-80
2021/07/05 12:31:48;;;;;;;11.48;4.95;;;794.10;1075.20;;;;;;5129085;28;20064;-80
2021/07/05 12:34:36;;;;;;;7.80;5.25;;;794.10;1075.20;;;;;;5128212;27;20126;-80